createdAt,value
2023-02-16T00:00:11.435Z,87
2023-02-16T00:01:23.452Z,87
2023-02-16T00:02:31.431Z,87
2023-02-16T00:03:38.220Z,86
2023-02-16T00:04:45.968Z,87
2023-02-16T00:05:53.682Z,87
2023-02-16T00:07:01.467Z,87
2023-02-16T00:08:10.227Z,87
2023-02-16T00:09:17.065Z,86
2023-02-16T00:10:24.789Z,87
2023-02-16T00:11:36.892Z,87
2023-02-16T00:12:48.984Z,86
2023-02-16T00:14:00.937Z,87
2023-02-16T00:15:08.628Z,87
2023-02-16T00:16:16.551Z,87
2023-02-16T00:17:25.491Z,87
2023-02-16T00:18:33.491Z,87
2023-02-16T00:19:41.131Z,87
2023-02-16T00:20:47.941Z,87
2023-02-16T00:21:55.961Z,87
2023-02-16T00:23:03.651Z,87
2023-02-16T00:24:11.720Z,87
2023-02-16T00:25:19.516Z,87
2023-02-16T00:26:26.786Z,87
2023-02-16T00:27:33.535Z,87
2023-02-16T00:28:41.852Z,87
2023-02-16T00:29:49.613Z,87
2023-02-16T00:30:58.217Z,87
2023-02-16T00:32:05.234Z,87
2023-02-16T00:33:13.207Z,87
2023-02-16T00:34:21.352Z,87
2023-02-16T00:35:31.023Z,87
2023-02-16T00:36:38.004Z,87
2023-02-16T00:37:44.807Z,87
2023-02-16T00:38:51.578Z,87
2023-02-16T00:39:58.334Z,87
2023-02-16T00:41:06.401Z,87
2023-02-16T00:42:21.213Z,87
2023-02-16T00:43:28.717Z,87
2023-02-16T00:44:36.445Z,87
2023-02-16T00:45:43.266Z,87
2023-02-16T00:46:50.172Z,87
2023-02-16T00:47:57.092Z,87
2023-02-16T00:49:04.000Z,87
2023-02-16T00:50:10.795Z,87
2023-02-16T00:51:25.952Z,87
2023-02-16T00:52:30.735Z,87
2023-02-16T00:53:41.781Z,87
2023-02-16T00:54:48.681Z,87
2023-02-16T00:55:56.432Z,87
2023-02-16T00:57:03.722Z,87
2023-02-16T00:58:10.628Z,87
2023-02-16T00:59:26.580Z,87
2023-02-16T01:00:33.479Z,87
2023-02-16T01:01:41.485Z,87
2023-02-16T01:02:48.344Z,87
2023-02-16T01:03:55.221Z,87
2023-02-16T01:05:02.059Z,87
2023-02-16T01:06:10.819Z,87
2023-02-16T01:07:22.800Z,87
2023-02-16T01:08:34.805Z,87
2023-02-16T01:09:48.123Z,87
2023-02-16T01:11:01.384Z,87
2023-02-16T01:12:13.330Z,87
2023-02-16T01:13:21.050Z,88
2023-02-16T01:14:28.873Z,87
2023-02-16T01:15:35.821Z,87
2023-02-16T01:16:43.885Z,87
2023-02-16T01:17:50.745Z,87
2023-02-16T01:18:57.596Z,87
2023-02-16T01:20:05.292Z,87
2023-02-16T01:21:17.272Z,87
2023-02-16T01:22:24.139Z,88
2023-02-16T01:23:32.062Z,88
2023-02-16T01:24:38.849Z,88
2023-02-16T01:25:46.704Z,88
2023-02-16T01:26:53.578Z,88
2023-02-16T01:28:01.468Z,88
2023-02-16T01:29:13.590Z,87
2023-02-16T01:30:21.265Z,88
2023-02-16T01:31:28.143Z,87
2023-02-16T01:32:34.785Z,87
2023-02-16T01:33:43.187Z,87
2023-02-16T01:34:50.144Z,87
2023-02-16T01:35:57.495Z,87
2023-02-16T01:37:04.329Z,87
2023-02-16T01:38:12.169Z,87
2023-02-16T01:39:23.829Z,87
2023-02-16T01:40:30.687Z,87
2023-02-16T01:41:37.569Z,87
2023-02-16T01:42:49.550Z,87
2023-02-16T01:43:57.288Z,87
2023-02-16T01:45:09.728Z,87
2023-02-16T01:46:17.398Z,87
2023-02-16T01:47:24.275Z,87
2023-02-16T01:48:36.254Z,87
2023-02-16T01:49:44.431Z,87
2023-02-16T01:50:51.230Z,87
2023-02-16T01:51:58.990Z,87
2023-02-16T01:53:08.666Z,87
2023-02-16T01:54:21.496Z,87
2023-02-16T01:55:39.598Z,87
2023-02-16T01:56:46.342Z,87
2023-02-16T01:57:53.275Z,87
2023-02-16T01:59:07.801Z,87
2023-02-16T02:00:15.431Z,87
2023-02-16T02:01:29.161Z,87
2023-02-16T02:02:40.187Z,87
2023-02-16T02:03:48.157Z,87
2023-02-16T02:05:00.868Z,87
2023-02-16T02:06:21.019Z,87
2023-02-16T02:07:28.205Z,87
2023-02-16T02:08:40.855Z,87
2023-02-16T02:09:57.951Z,87
2023-02-16T02:11:05.254Z,87
2023-02-16T02:12:16.867Z,87
2023-02-16T02:13:36.916Z,87
2023-02-16T02:14:48.874Z,87
2023-02-16T02:15:55.851Z,87
2023-02-16T02:17:02.648Z,87
2023-02-16T02:18:14.586Z,87
2023-02-16T02:19:23.155Z,88
2023-02-16T02:20:30.178Z,87
2023-02-16T02:21:52.528Z,87
2023-02-16T02:23:15.916Z,87
2023-02-16T02:24:32.942Z,87
2023-02-16T02:25:48.856Z,88
2023-02-16T02:27:00.889Z,87
2023-02-16T02:28:16.762Z,87
2023-02-16T02:29:33.838Z,88
2023-02-16T02:30:45.888Z,87
2023-02-16T02:31:52.804Z,87
2023-02-16T02:33:09.792Z,87
2023-02-16T02:34:21.936Z,87
2023-02-16T02:35:39.914Z,87
2023-02-16T02:36:53.147Z,87
2023-02-16T02:38:06.161Z,87
2023-02-16T02:39:18.123Z,87
2023-02-16T02:40:35.357Z,87
2023-02-16T02:41:49.225Z,87
2023-02-16T02:43:06.305Z,87
2023-02-16T02:44:21.242Z,88
2023-02-16T02:45:29.067Z,87
2023-02-16T02:46:42.028Z,87
2023-02-16T02:47:49.032Z,87
2023-02-16T02:48:55.888Z,87
2023-02-16T02:50:03.690Z,87
2023-02-16T02:51:20.838Z,87
2023-02-16T02:52:32.904Z,87
2023-02-16T02:53:39.723Z,87
2023-02-16T02:54:51.791Z,87
2023-02-16T02:56:04.655Z,87
2023-02-16T02:57:16.669Z,87
2023-02-16T02:58:36.514Z,88
2023-02-16T02:59:48.635Z,88
2023-02-16T03:01:06.075Z,87
2023-02-16T03:02:13.577Z,88
2023-02-16T03:03:20.413Z,87
2023-02-16T03:04:38.319Z,88
2023-02-16T03:05:45.639Z,87
2023-02-16T03:06:56.182Z,88
2023-02-16T03:08:03.015Z,87
2023-02-16T03:09:13.595Z,87
2023-02-16T03:10:20.478Z,87
2023-02-16T03:11:33.368Z,88
2023-02-16T03:12:45.246Z,88
2023-02-16T03:13:52.041Z,87
2023-02-16T03:15:05.579Z,88
2023-02-16T03:16:13.427Z,87
2023-02-16T03:17:20.207Z,87
2023-02-16T03:18:35.163Z,88
2023-02-16T03:19:47.067Z,87
2023-02-16T03:20:59.890Z,88
2023-02-16T03:22:12.921Z,88
2023-02-16T03:23:25.673Z,88
2023-02-16T03:24:37.731Z,88
2023-02-16T03:25:49.743Z,87
2023-02-16T03:27:03.460Z,88
2023-02-16T03:28:15.488Z,88
2023-02-16T03:29:27.508Z,88
2023-02-16T03:30:34.524Z,88
2023-02-16T03:31:41.331Z,88
2023-02-16T03:32:49.533Z,88
2023-02-16T03:33:56.434Z,87
2023-02-16T03:35:04.528Z,88
2023-02-16T03:36:14.510Z,88
2023-02-16T03:37:21.636Z,88
2023-02-16T03:38:28.581Z,88
2023-02-16T03:39:36.170Z,88
2023-02-16T03:40:48.184Z,88
2023-02-16T03:41:57.248Z,87
2023-02-16T03:43:05.807Z,88
2023-02-16T03:44:12.638Z,88
2023-02-16T03:45:21.374Z,88
2023-02-16T03:46:28.277Z,88
2023-02-16T03:47:35.175Z,88
2023-02-16T03:48:42.120Z,87
2023-02-16T03:49:49.037Z,88
2023-02-16T03:50:58.929Z,88
2023-02-16T03:52:05.771Z,88
2023-02-16T03:53:12.560Z,88
2023-02-16T03:54:19.451Z,88
2023-02-16T03:55:27.320Z,88
2023-02-16T03:56:34.170Z,88
2023-02-16T03:57:41.045Z,88
2023-02-16T03:58:47.931Z,88
2023-02-16T03:59:54.744Z,88
2023-02-16T04:01:02.078Z,88
2023-02-16T04:02:10.752Z,88
2023-02-16T04:03:18.654Z,88
2023-02-16T04:04:25.607Z,88
2023-02-16T04:05:33.401Z,88
2023-02-16T04:06:41.158Z,88
2023-02-16T04:07:48.030Z,88
2023-02-16T04:08:55.822Z,88
2023-02-16T04:10:03.690Z,88
2023-02-16T04:11:10.679Z,88
2023-02-16T04:12:22.818Z,88
2023-02-16T04:13:34.826Z,88
2023-02-16T04:14:43.643Z,88
2023-02-16T04:15:51.826Z,88
2023-02-16T04:16:59.826Z,88
2023-02-16T04:18:07.648Z,88
2023-02-16T04:19:15.382Z,88
2023-02-16T04:20:24.369Z,88
2023-02-16T04:21:32.237Z,88
2023-02-16T04:22:41.054Z,88
2023-02-16T04:23:47.961Z,88
2023-02-16T04:24:54.936Z,88
2023-02-16T04:26:01.943Z,88
2023-02-16T04:27:09.874Z,88
2023-02-16T04:28:17.096Z,88
2023-02-16T04:29:24.759Z,88
2023-02-16T04:30:32.729Z,88
2023-02-16T04:31:41.261Z,88
2023-02-16T04:32:49.759Z,88
2023-02-16T04:33:57.576Z,88
2023-02-16T04:35:04.388Z,88
2023-02-16T04:36:12.872Z,88
2023-02-16T04:37:19.727Z,88
2023-02-16T04:38:26.707Z,88
2023-02-16T04:39:33.626Z,88
2023-02-16T04:40:40.634Z,88
2023-02-16T04:41:47.510Z,88
2023-02-16T04:42:54.352Z,88
2023-02-16T04:44:01.231Z,88
2023-02-16T04:45:08.202Z,88
2023-02-16T04:46:15.271Z,88
2023-02-16T04:47:22.223Z,88
2023-02-16T04:48:32.153Z,88
2023-02-16T04:49:39.117Z,88
2023-02-16T04:50:47.345Z,88
2023-02-16T04:51:54.180Z,88
2023-02-16T04:53:03.537Z,89
2023-02-16T04:54:10.553Z,89
2023-02-16T04:55:18.589Z,88
2023-02-16T04:56:25.770Z,88
2023-02-16T04:57:32.644Z,88
2023-02-16T04:58:40.454Z,88
2023-02-16T04:59:49.716Z,89
2023-02-16T05:00:56.557Z,88
2023-02-16T05:02:04.825Z,88
2023-02-16T05:03:11.806Z,89
2023-02-16T05:04:19.455Z,88
2023-02-16T05:05:26.312Z,88
2023-02-16T05:06:34.201Z,88
2023-02-16T05:07:43.700Z,88
2023-02-16T05:08:50.614Z,88
2023-02-16T05:09:58.607Z,88
2023-02-16T05:11:05.661Z,89
2023-02-16T05:12:20.537Z,88
2023-02-16T05:13:32.437Z,88
2023-02-16T05:14:44.433Z,88
2023-02-16T05:15:52.143Z,88
2023-02-16T05:16:58.954Z,88
2023-02-16T05:18:05.940Z,88
2023-02-16T05:19:14.336Z,88
2023-02-16T05:20:22.225Z,88
2023-02-16T05:21:29.121Z,89
2023-02-16T05:22:41.332Z,89
2023-02-16T05:23:50.913Z,88
2023-02-16T05:24:57.744Z,88
2023-02-16T05:26:05.443Z,89
2023-02-16T05:27:12.353Z,88
2023-02-16T05:28:22.317Z,89
2023-02-16T05:29:29.085Z,88
2023-02-16T05:30:35.964Z,88
2023-02-16T05:31:43.783Z,88
2023-02-16T05:32:50.500Z,88
2023-02-16T05:33:58.148Z,88
2023-02-16T05:35:05.056Z,88
2023-02-16T05:36:12.158Z,88
2023-02-16T05:37:19.030Z,88
2023-02-16T05:38:26.299Z,88
2023-02-16T05:39:35.978Z,88
2023-02-16T05:40:43.103Z,88
2023-02-16T05:41:50.916Z,88
2023-02-16T05:42:57.720Z,89
2023-02-16T05:44:05.627Z,88
2023-02-16T05:45:12.527Z,89
2023-02-16T05:46:20.401Z,89
2023-02-16T05:47:27.312Z,88
2023-02-16T05:48:35.106Z,89
2023-02-16T05:49:41.941Z,89
2023-02-16T05:50:49.506Z,89
2023-02-16T05:51:59.073Z,89
2023-02-16T05:53:06.026Z,88
2023-02-16T05:54:13.811Z,89
2023-02-16T05:55:20.723Z,88
2023-02-16T05:56:28.398Z,88
2023-02-16T05:57:35.279Z,88
2023-02-16T05:58:42.051Z,88
2023-02-16T05:59:49.843Z,88
2023-02-16T06:00:58.539Z,88
2023-02-16T06:02:06.288Z,88
2023-02-16T06:03:14.068Z,88
2023-02-16T06:04:22.269Z,88
2023-02-16T06:05:30.132Z,88
2023-02-16T06:06:38.630Z,88
2023-02-16T06:07:45.522Z,88
2023-02-16T06:08:52.511Z,88
2023-02-16T06:10:00.249Z,89
2023-02-16T06:11:08.040Z,89
2023-02-16T06:12:14.937Z,89
2023-02-16T06:13:22.656Z,89
2023-02-16T06:14:29.505Z,89
2023-02-16T06:15:36.308Z,89
2023-02-16T06:16:44.165Z,88
2023-02-16T06:17:52.108Z,88
2023-02-16T06:18:59.086Z,88
2023-02-16T06:20:05.945Z,89
2023-02-16T06:21:13.040Z,89
2023-02-16T06:22:19.851Z,88
2023-02-16T06:23:28.519Z,89
2023-02-16T06:24:36.245Z,89
2023-02-16T06:25:43.971Z,88
2023-02-16T06:26:50.757Z,89
2023-02-16T06:27:57.633Z,89
2023-02-16T06:29:06.424Z,89
2023-02-16T06:30:15.254Z,89
2023-02-16T06:31:22.573Z,88
2023-02-16T06:32:29.451Z,89
2023-02-16T06:33:37.612Z,89
2023-02-16T06:34:44.630Z,89
2023-02-16T06:35:53.790Z,88
2023-02-16T06:37:00.578Z,89
2023-02-16T06:38:08.411Z,89
2023-02-16T06:39:16.242Z,88
2023-02-16T06:40:23.199Z,89
2023-02-16T06:41:30.108Z,89
2023-02-16T06:42:38.058Z,88
2023-02-16T06:43:44.905Z,88
2023-02-16T06:44:52.674Z,88
2023-02-16T06:45:57.865Z,88
2023-02-16T06:47:05.086Z,88
2023-02-16T06:48:12.036Z,89
2023-02-16T06:49:19.849Z,88
2023-02-16T06:50:28.656Z,89
2023-02-16T06:51:35.591Z,88
2023-02-16T06:52:43.488Z,88
2023-02-16T06:53:52.251Z,88
2023-02-16T06:54:59.999Z,88
2023-02-16T06:56:06.983Z,88
2023-02-16T06:57:14.024Z,88
2023-02-16T06:58:21.675Z,88
2023-02-16T06:59:28.650Z,88
2023-02-16T07:00:35.637Z,88
2023-02-16T07:01:44.210Z,88
2023-02-16T07:02:49.338Z,88
2023-02-16T07:03:57.197Z,88
2023-02-16T07:05:05.367Z,88
2023-02-16T07:06:13.233Z,88
2023-02-16T07:07:20.835Z,88
2023-02-16T07:08:29.738Z,88
2023-02-16T07:09:39.437Z,88
2023-02-16T07:10:50.281Z,88
2023-02-16T07:11:54.842Z,88
2023-02-16T07:13:02.585Z,88
2023-02-16T07:14:10.933Z,88
2023-02-16T07:15:17.885Z,88
2023-02-16T07:16:25.703Z,88
2023-02-16T07:17:33.521Z,88
2023-02-16T07:18:40.358Z,88
2023-02-16T07:19:49.085Z,88
2023-02-16T07:20:55.919Z,88
2023-02-16T07:22:03.545Z,88
2023-02-16T07:23:11.332Z,88
2023-02-16T07:24:18.827Z,88
2023-02-16T07:25:28.304Z,88
2023-02-16T07:26:35.967Z,88
2023-02-16T07:27:42.897Z,87
2023-02-16T07:28:50.880Z,88
2023-02-16T07:29:58.799Z,88
2023-02-16T07:31:07.139Z,88
2023-02-16T07:32:13.719Z,88
2023-02-16T07:33:20.587Z,88
2023-02-16T07:34:28.341Z,88
2023-02-16T07:35:35.312Z,88
2023-02-16T07:36:43.601Z,87
2023-02-16T07:37:50.518Z,87
2023-02-16T07:39:00.787Z,87
2023-02-16T07:40:07.741Z,87
2023-02-16T07:41:14.953Z,87
2023-02-16T07:42:21.756Z,88
2023-02-16T07:43:29.626Z,87
2023-02-16T07:44:36.489Z,87
2023-02-16T07:45:46.098Z,87
2023-02-16T07:46:52.924Z,87
2023-02-16T07:48:00.598Z,87
2023-02-16T07:49:07.669Z,87
2023-02-16T07:50:14.516Z,87
2023-02-16T07:51:21.295Z,87
2023-02-16T07:52:29.137Z,86
2023-02-16T07:53:36.036Z,87
2023-02-16T07:54:44.126Z,87
2023-02-16T07:55:51.170Z,86
2023-02-16T07:57:02.923Z,87
2023-02-16T07:58:09.738Z,86
2023-02-16T07:59:17.002Z,87
2023-02-16T08:00:24.144Z,87
2023-02-16T08:01:31.841Z,87
2023-02-16T08:02:39.517Z,87
2023-02-16T08:03:47.196Z,87
2023-02-16T08:04:54.090Z,86
2023-02-16T08:06:01.955Z,86
2023-02-16T08:07:08.960Z,86
2023-02-16T08:08:15.981Z,86
2023-02-16T08:09:22.919Z,86
2023-02-16T08:10:29.961Z,86
2023-02-16T08:11:37.059Z,86
2023-02-16T08:12:43.937Z,86
2023-02-16T08:13:51.723Z,86
2023-02-16T08:14:59.988Z,86
2023-02-16T08:16:07.236Z,86
2023-02-16T08:17:13.907Z,86
2023-02-16T08:18:20.855Z,86
2023-02-16T08:19:27.872Z,85
2023-02-16T08:20:51.109Z,86
2023-02-16T08:21:41.671Z,86
2023-02-16T08:22:49.818Z,86
2023-02-16T08:24:00.913Z,85
2023-02-16T08:25:07.929Z,85
2023-02-16T08:26:14.792Z,85
2023-02-16T08:27:22.690Z,86
2023-02-16T08:28:29.723Z,85
2023-02-16T08:29:36.578Z,85
2023-02-16T08:30:43.519Z,85
2023-02-16T08:31:51.377Z,85
2023-02-16T08:32:58.139Z,85
2023-02-16T08:34:07.588Z,85
2023-02-16T08:35:15.396Z,85
2023-02-16T08:36:22.452Z,85
2023-02-16T08:37:29.343Z,85
2023-02-16T08:38:36.201Z,85
2023-02-16T08:39:44.896Z,85
2023-02-16T08:40:51.768Z,85
2023-02-16T08:41:58.854Z,85
2023-02-16T08:43:07.626Z,85
2023-02-16T08:44:15.684Z,84
2023-02-16T08:45:22.444Z,84
2023-02-16T08:46:30.384Z,85
2023-02-16T08:47:37.161Z,84
2023-02-16T08:48:44.102Z,85
2023-02-16T08:49:51.094Z,85
2023-02-16T08:50:58.134Z,85
2023-02-16T08:52:05.302Z,85
2023-02-16T08:53:12.239Z,84
2023-02-16T08:54:20.084Z,84
2023-02-16T08:55:26.896Z,84
2023-02-16T08:56:34.198Z,85
2023-02-16T08:57:41.194Z,84
2023-02-16T08:58:49.470Z,84
2023-02-16T08:59:57.121Z,84
2023-02-16T09:01:10.500Z,84
2023-02-16T09:02:26.080Z,84
2023-02-16T09:03:35.998Z,84
2023-02-16T09:04:43.450Z,84
2023-02-16T09:05:52.160Z,84
2023-02-16T09:06:59.287Z,84
2023-02-16T09:08:06.528Z,83
2023-02-16T09:09:13.551Z,83
2023-02-16T09:10:20.803Z,83
2023-02-16T09:11:30.267Z,83
2023-02-16T09:12:37.420Z,83
2023-02-16T09:13:44.364Z,83
2023-02-16T09:14:51.292Z,83
2023-02-16T09:15:58.200Z,82
2023-02-16T09:17:12.212Z,82
2023-02-16T09:18:19.476Z,82
2023-02-16T09:19:28.620Z,82
2023-02-16T09:20:35.439Z,82
2023-02-16T09:21:45.238Z,82
2023-02-16T09:22:55.153Z,81
2023-02-16T09:24:05.137Z,81
2023-02-16T09:25:16.372Z,81
2023-02-16T09:26:23.311Z,81
2023-02-16T09:27:33.764Z,80
2023-02-16T09:28:44.112Z,81
2023-02-16T09:29:50.976Z,80
2023-02-16T09:30:57.910Z,80
2023-02-16T09:32:05.333Z,79
2023-02-16T09:33:12.296Z,79
2023-02-16T09:34:20.145Z,79
2023-02-16T09:35:28.719Z,79
2023-02-16T09:36:35.827Z,79
2023-02-16T09:37:44.731Z,78
2023-02-16T09:38:52.195Z,77
2023-02-16T09:40:00.388Z,78
2023-02-16T09:41:09.498Z,77
2023-02-16T09:42:25.592Z,77
2023-02-16T09:43:40.691Z,77
2023-02-16T09:44:52.752Z,77
2023-02-16T09:46:10.204Z,77
2023-02-16T09:47:17.052Z,77
2023-02-16T09:48:33.007Z,77
2023-02-16T09:49:39.900Z,76
2023-02-16T09:50:54.069Z,76
2023-02-16T09:51:58.414Z,76
2023-02-16T09:53:09.452Z,76
2023-02-16T09:54:16.460Z,75
2023-02-16T09:55:23.284Z,75
2023-02-16T09:56:33.251Z,75
2023-02-16T09:57:47.833Z,75
2023-02-16T09:58:59.808Z,75
2023-02-16T10:00:12.756Z,75
2023-02-16T10:01:28.328Z,74
2023-02-16T10:02:44.244Z,74
2023-02-16T10:03:55.550Z,74
2023-02-16T10:05:11.744Z,74
2023-02-16T10:06:26.797Z,74
2023-02-16T10:07:41.957Z,74
2023-02-16T10:08:56.775Z,74
2023-02-16T10:10:09.944Z,74
2023-02-16T10:11:17.034Z,74
2023-02-16T10:12:34.285Z,73
2023-02-16T10:13:42.177Z,74
2023-02-16T10:14:49.710Z,74
2023-02-16T10:16:02.564Z,74
2023-02-16T10:17:09.486Z,74
2023-02-16T10:18:19.029Z,74
2023-02-16T10:19:28.789Z,74
2023-02-16T10:20:41.692Z,74
2023-02-16T10:21:49.201Z,73
2023-02-16T10:22:56.049Z,73
2023-02-16T10:24:14.128Z,73
2023-02-16T10:25:21.093Z,73
2023-02-16T10:26:38.449Z,73
2023-02-16T10:27:52.117Z,73
2023-02-16T10:29:02.007Z,72
2023-02-16T10:30:12.027Z,72
2023-02-16T10:31:18.998Z,73
2023-02-16T10:32:39.360Z,72
2023-02-16T10:33:43.236Z,73
2023-02-16T10:34:55.330Z,72
2023-02-16T10:36:12.560Z,73
2023-02-16T10:37:28.356Z,72
2023-02-16T10:38:44.229Z,72
2023-02-16T10:40:02.233Z,73
2023-02-16T10:41:19.609Z,72
2023-02-16T10:42:36.821Z,72
2023-02-16T10:43:51.600Z,72
2023-02-16T10:45:03.749Z,73
2023-02-16T10:46:21.788Z,73
2023-02-16T10:47:30.858Z,73
2023-02-16T10:48:40.908Z,72
2023-02-16T10:49:47.783Z,73
2023-02-16T10:50:54.634Z,73
2023-02-16T10:52:12.879Z,73
2023-02-16T10:53:21.855Z,72
2023-02-16T10:54:36.664Z,72
2023-02-16T10:55:43.793Z,73
2023-02-16T10:56:52.675Z,73
2023-02-16T10:58:02.314Z,72
2023-02-16T10:59:12.140Z,72
2023-02-16T11:00:22.985Z,72
2023-02-16T11:01:41.369Z,72
2023-02-16T11:02:52.101Z,73
2023-02-16T11:03:59.991Z,73
2023-02-16T11:05:06.825Z,73
2023-02-16T11:06:24.166Z,73
2023-02-16T11:07:30.997Z,72
2023-02-16T11:08:37.805Z,73
2023-02-16T11:09:52.468Z,72
2023-02-16T11:11:00.285Z,73
2023-02-16T11:12:09.629Z,73
2023-02-16T11:13:18.926Z,72
2023-02-16T11:14:36.084Z,72
2023-02-16T11:15:43.058Z,72
2023-02-16T11:16:50.748Z,72
2023-02-16T11:18:05.575Z,72
2023-02-16T11:19:13.426Z,72
2023-02-16T11:20:23.159Z,72
2023-02-16T11:21:30.859Z,72
2023-02-16T11:22:48.043Z,72
2023-02-16T11:23:54.951Z,72
2023-02-16T11:25:08.818Z,72
2023-02-16T11:26:16.420Z,72
2023-02-16T11:27:24.338Z,73
2023-02-16T11:28:32.534Z,72
2023-02-16T11:29:44.124Z,72
2023-02-16T11:30:51.264Z,72
2023-02-16T11:32:04.170Z,72
2023-02-16T11:33:14.212Z,72
2023-02-16T11:34:25.152Z,72
2023-02-16T11:35:32.815Z,72
2023-02-16T11:36:39.697Z,72
2023-02-16T11:37:46.653Z,72
2023-02-16T11:38:53.521Z,72
2023-02-16T11:40:00.401Z,72
2023-02-16T11:41:13.047Z,72
2023-02-16T11:42:20.049Z,72
2023-02-16T11:43:32.525Z,71
2023-02-16T11:44:40.378Z,72
2023-02-16T11:45:53.191Z,72
2023-02-16T11:47:04.063Z,72
2023-02-16T11:48:13.459Z,71
2023-02-16T11:49:21.682Z,72
2023-02-16T11:50:39.800Z,71
2023-02-16T11:51:57.013Z,71
2023-02-16T11:53:04.080Z,71
2023-02-16T11:54:15.284Z,71
2023-02-16T11:55:25.486Z,71
2023-02-16T11:56:32.956Z,71
2023-02-16T11:57:39.991Z,70
2023-02-16T11:58:47.774Z,70
2023-02-16T12:00:07.190Z,70
2023-02-16T12:01:20.651Z,70
2023-02-16T12:02:27.638Z,70
2023-02-16T12:03:41.033Z,70
2023-02-16T12:04:53.094Z,70
2023-02-16T12:06:09.052Z,70
2023-02-16T12:07:26.388Z,70
2023-02-16T12:08:36.679Z,71
2023-02-16T12:09:53.882Z,70
2023-02-16T12:11:14.151Z,70
2023-02-16T12:12:26.423Z,71
2023-02-16T12:13:36.383Z,70
2023-02-16T12:14:53.741Z,70
2023-02-16T12:16:09.095Z,70
2023-02-16T12:17:24.831Z,70
2023-02-16T12:18:31.729Z,71
2023-02-16T12:19:38.573Z,72
2023-02-16T12:20:45.501Z,71
2023-02-16T12:21:53.661Z,71
2023-02-16T12:23:06.693Z,71
2023-02-16T12:24:18.671Z,71
2023-02-16T12:25:33.862Z,71
2023-02-16T12:26:40.910Z,71
2023-02-16T12:27:59.218Z,72
2023-02-16T12:29:09.750Z,72
2023-02-16T12:30:26.451Z,72
2023-02-16T12:31:41.695Z,72
2023-02-16T12:32:56.262Z,71
2023-02-16T12:34:11.177Z,72
2023-02-16T12:35:19.534Z,72
2023-02-16T12:36:36.644Z,73
2023-02-16T12:37:54.748Z,72
2023-02-16T12:39:10.305Z,71
2023-02-16T12:40:24.131Z,72
2023-02-16T12:41:41.614Z,72
2023-02-16T12:42:51.499Z,71
2023-02-16T12:43:59.238Z,72
2023-02-16T12:45:06.389Z,72
2023-02-16T12:46:16.590Z,71
2023-02-16T12:47:28.016Z,71
2023-02-16T12:48:44.641Z,71
2023-02-16T12:50:00.630Z,72
2023-02-16T12:51:16.561Z,71
2023-02-16T12:52:31.165Z,72
2023-02-16T12:53:46.221Z,72
2023-02-16T12:54:58.284Z,72
2023-02-16T12:56:10.520Z,71
2023-02-16T12:57:17.520Z,71
2023-02-16T12:58:26.336Z,71
2023-02-16T12:59:35.747Z,71
2023-02-16T13:00:49.699Z,71
2023-02-16T13:01:57.925Z,71
2023-02-16T13:03:05.841Z,71
2023-02-16T13:04:22.889Z,71
2023-02-16T13:05:30.686Z,70
2023-02-16T13:06:41.116Z,70
2023-02-16T13:07:50.115Z,70
2023-02-16T13:08:57.335Z,70
2023-02-16T13:10:17.270Z,70
2023-02-16T13:11:35.865Z,71
2023-02-16T13:12:56.533Z,70
2023-02-16T13:14:08.648Z,70
2023-02-16T13:15:16.539Z,70
2023-02-16T13:16:30.322Z,71
2023-02-16T13:17:41.967Z,71
2023-02-16T13:18:59.208Z,70
2023-02-16T13:20:06.510Z,70
2023-02-16T13:21:19.584Z,70
2023-02-16T13:22:26.512Z,70
2023-02-16T13:23:36.333Z,71
2023-02-16T13:24:57.555Z,71
2023-02-16T13:26:12.369Z,71
2023-02-16T13:27:27.002Z,71
2023-02-16T13:28:44.468Z,71
2023-02-16T13:29:59.385Z,71
2023-02-16T13:31:17.557Z,70
2023-02-16T13:32:36.455Z,70
2023-02-16T13:33:50.977Z,71
2023-02-16T13:35:03.401Z,70
2023-02-16T13:36:20.626Z,70
2023-02-16T13:37:34.031Z,70
2023-02-16T13:38:55.224Z,71
2023-02-16T13:40:05.221Z,70
2023-02-16T13:41:17.914Z,71
2023-02-16T13:42:35.513Z,70
2023-02-16T13:43:47.466Z,70
2023-02-16T13:45:04.575Z,70
2023-02-16T13:46:17.027Z,70
2023-02-16T13:47:23.966Z,70
2023-02-16T13:48:38.413Z,70
2023-02-16T13:49:49.032Z,70
2023-02-16T13:51:01.931Z,71
2023-02-16T13:52:09.319Z,71
2023-02-16T13:53:29.393Z,71
2023-02-16T13:54:39.202Z,71
2023-02-16T13:55:49.066Z,71
2023-02-16T13:56:56.110Z,70
2023-02-16T13:58:03.154Z,71
2023-02-16T13:59:17.076Z,70
2023-02-16T14:00:24.065Z,70
2023-02-16T14:01:38.817Z,70
2023-02-16T14:02:47.674Z,70
2023-02-16T14:03:58.181Z,70
2023-02-16T14:05:05.095Z,71
2023-02-16T14:06:13.333Z,71
2023-02-16T14:07:25.609Z,71
2023-02-16T14:08:38.897Z,71
2023-02-16T14:09:45.786Z,71
2023-02-16T14:10:52.855Z,71
2023-02-16T14:11:59.792Z,71
2023-02-16T14:13:07.526Z,72
2023-02-16T14:14:14.461Z,71
2023-02-16T14:15:33.157Z,72
2023-02-16T14:16:40.941Z,72
2023-02-16T14:17:50.719Z,71
2023-02-16T14:19:05.800Z,71
2023-02-16T14:20:18.838Z,72
2023-02-16T14:21:26.589Z,72
2023-02-16T14:22:38.632Z,72
2023-02-16T14:23:48.582Z,72
2023-02-16T14:25:01.317Z,73
2023-02-16T14:26:18.829Z,72
2023-02-16T14:27:28.074Z,72
2023-02-16T14:28:45.161Z,73
2023-02-16T14:29:55.431Z,73
2023-02-16T14:31:06.475Z,72
2023-02-16T14:32:16.667Z,73
2023-02-16T14:33:23.589Z,73
2023-02-16T14:34:40.711Z,73
2023-02-16T14:36:09.637Z,72
2023-02-16T14:37:21.577Z,72
2023-02-16T14:38:32.327Z,72
2023-02-16T14:40:06.783Z,72
2023-02-16T14:40:55.488Z,73
2023-02-16T14:42:05.377Z,73
2023-02-16T14:43:18.316Z,73
2023-02-16T14:44:35.189Z,73
2023-02-16T14:45:43.424Z,73
2023-02-16T14:46:55.477Z,73
2023-02-16T14:48:11.356Z,73
2023-02-16T14:49:25.129Z,73
2023-02-16T14:50:38.160Z,73
2023-02-16T14:51:51.512Z,73
2023-02-16T14:53:08.719Z,74
2023-02-16T14:54:21.479Z,74
2023-02-16T14:55:36.777Z,74
2023-02-16T14:56:55.592Z,74
2023-02-16T14:58:08.038Z,74
2023-02-16T14:59:18.020Z,74
2023-02-16T15:00:30.279Z,74
2023-02-16T15:01:45.158Z,75
2023-02-16T15:02:55.944Z,75
2023-02-16T15:04:06.551Z,74
2023-02-16T15:05:14.616Z,74
2023-02-16T15:06:25.432Z,74
2023-02-16T15:07:42.087Z,73
2023-02-16T15:08:50.700Z,74
2023-02-16T15:10:06.402Z,74
2023-02-16T15:11:15.435Z,74
2023-02-16T15:12:23.765Z,75
2023-02-16T15:13:34.277Z,74
2023-02-16T15:14:41.656Z,74
2023-02-16T15:15:54.422Z,74
2023-02-16T15:17:02.000Z,74
2023-02-16T15:18:16.319Z,74
2023-02-16T15:19:24.766Z,75
2023-02-16T15:20:35.703Z,75
2023-02-16T15:21:43.451Z,75
2023-02-16T15:22:54.942Z,75
2023-02-16T15:24:03.978Z,75
2023-02-16T15:25:14.528Z,75
2023-02-16T15:26:30.827Z,75
2023-02-16T15:27:38.919Z,74
2023-02-16T15:28:46.885Z,74
2023-02-16T15:29:54.499Z,74
2023-02-16T15:31:14.818Z,75
2023-02-16T15:32:23.092Z,75
2023-02-16T15:33:35.460Z,75
2023-02-16T15:34:46.439Z,75
2023-02-16T15:35:54.317Z,75
2023-02-16T15:37:07.212Z,75
2023-02-16T15:38:23.853Z,75
2023-02-16T15:39:48.498Z,75
2023-02-16T15:40:48.463Z,75
2023-02-16T15:41:59.876Z,75
2023-02-16T15:43:12.376Z,75
2023-02-16T15:44:27.162Z,75
2023-02-16T15:45:37.195Z,76
2023-02-16T15:46:45.630Z,76
2023-02-16T15:47:57.277Z,76
2023-02-16T15:49:15.338Z,76
2023-02-16T15:50:34.728Z,76
2023-02-16T15:51:46.698Z,76
2023-02-16T15:52:55.463Z,77
2023-02-16T15:54:03.056Z,77
2023-02-16T15:55:29.272Z,77
2023-02-16T15:56:36.484Z,76
2023-02-16T15:57:47.495Z,77
2023-02-16T15:58:56.329Z,76
2023-02-16T16:00:04.459Z,76
2023-02-16T16:01:31.473Z,77
2023-02-16T16:02:51.848Z,77
2023-02-16T16:04:00.879Z,77
2023-02-16T16:05:14.878Z,77
2023-02-16T16:06:24.626Z,77
2023-02-16T16:07:31.843Z,77
2023-02-16T16:08:40.660Z,77
2023-02-16T16:09:50.247Z,77
2023-02-16T16:10:58.973Z,77
2023-02-16T16:12:10.093Z,78
2023-02-16T16:13:18.758Z,78
2023-02-16T16:14:31.170Z,78
2023-02-16T16:15:41.760Z,78
2023-02-16T16:16:50.965Z,78
2023-02-16T16:17:58.993Z,78
2023-02-16T16:19:09.616Z,78
2023-02-16T16:20:22.630Z,78
2023-02-16T16:21:36.142Z,78
2023-02-16T16:22:51.062Z,78
2023-02-16T16:24:02.668Z,79
2023-02-16T16:25:13.710Z,79
2023-02-16T16:26:31.801Z,78
2023-02-16T16:27:44.572Z,79
2023-02-16T16:29:01.425Z,79
2023-02-16T16:30:11.437Z,79
2023-02-16T16:31:24.868Z,79
2023-02-16T16:32:34.788Z,79
2023-02-16T16:33:52.940Z,79
2023-02-16T16:35:08.070Z,79
2023-02-16T16:36:23.358Z,80
2023-02-16T16:37:42.153Z,79